»·PEaware :: N11288 KPSP-KVNY

N11288 :: KPSP-KVNY

FLIGHT INFORMATION

Flight Status: Arrived
Operator: Privately registered:
United States
More flights under this callsign
Pilot: Anonymous 5456 (5456)
Aircraft: MCDONNELL-DOUGLAS SKYTRAIN C-47
(DC3)
More flights by this aircraft type
Origin: KPSP Palm Springs Intl
United States
Destination: KVNY Van Nuys
United States
More flights between these airports :: More routes between these airports
Route: +
File this flight plan on PilotEdge
Remarks:
Altitude:
(Current/Filed)
10,500ft
Speed:
(Current/Filed)
0kts
Departed: 19-Sep-17 09:16 AM
Arrived: 19-Sep-17 10:15 AM
Distance/Time
Traveled:
101nm/0:58
Distance/Time
To Go:
Arrived

Flight Plot

Page will automatically refresh every two minutes.


Map Options




Map Legend


Flown Route
Filed Route
Departure Airport
Arrival Airport
Navaid (VOR, NDB)
Fix

Horizontal Profiles

Position Reports

Time Latitude Longitude Heading Altitude Ground
Speed
19-Sep-17 09:12 33.826908 -116.500469 320 486ft 0kts
19-Sep-17 09:13 33.826908 -116.500469 320 486ft 0kts
19-Sep-17 09:14 33.826908 -116.500469 320 486ft 0kts
19-Sep-17 09:15 33.826772 -116.501086 193 486ft 5kts
19-Sep-17 09:16 33.824702 -116.499575 216 486ft 4kts
19-Sep-17 09:17 33.822783 -116.499857 145 486ft 0kts
19-Sep-17 09:18 33.820221 -116.497604 149 486ft 14kts
19-Sep-17 09:19 33.818975 -116.498134 320 486ft 12kts
19-Sep-17 09:20 33.833967 -116.510707 327 1273ft 90kts
19-Sep-17 09:21 33.855019 -116.526015 335 2941ft 92kts
19-Sep-17 09:22 33.879726 -116.535595 330 4120ft 87kts
19-Sep-17 09:23 33.897973 -116.550565 328 5201ft 82kts
19-Sep-17 09:24 33.909314 -116.573655 278 6351ft 84kts
19-Sep-17 09:25 33.914815 -116.601580 280 7421ft 89kts
19-Sep-17 09:26 33.920539 -116.630372 288 8506ft 85kts
19-Sep-17 09:27 33.929683 -116.655595 301 9437ft 82kts
19-Sep-17 09:28 33.943564 -116.676698 310 10357ft 75kts
19-Sep-17 09:29 33.963918 -116.696216 322 10709ft 110kts
19-Sep-17 09:30 33.990055 -116.722172 314 10668ft 130kts
19-Sep-17 09:31 34.014831 -116.756979 305 10471ft 149kts
19-Sep-17 09:32 34.037756 -116.799778 296 10312ft 154kts
19-Sep-17 09:33 34.051034 -116.847210 259 10292ft 145kts
19-Sep-17 09:34 34.028474 -116.883095 223 10501ft 134kts
19-Sep-17 09:35 33.999750 -116.911272 217 10557ft 138kts
19-Sep-17 09:36 33.967274 -116.937161 212 10548ft 142kts
19-Sep-17 09:37 33.933188 -116.960732 220 10507ft 146kts
19-Sep-17 09:38 33.919262 -116.995642 268 10516ft 144kts
19-Sep-17 09:39 33.948278 -117.035204 323 10646ft 138kts
19-Sep-17 09:40 33.980098 -117.058622 323 10647ft 146kts
19-Sep-17 09:41 34.009258 -117.080344 323 10639ft 153kts
19-Sep-17 09:42 34.050881 -117.114789 319 10675ft 160kts
19-Sep-17 09:43 34.083899 -117.150257 312 10872ft 160kts
19-Sep-17 09:44 34.111856 -117.187758 305 10887ft 160kts
19-Sep-17 09:45 34.133970 -117.223637 303 10744ft 161kts
19-Sep-17 09:46 34.164284 -117.274906 304 10554ft 161kts
19-Sep-17 09:47 34.186480 -117.310927 305 10484ft 158kts
19-Sep-17 09:48 34.212540 -117.351740 306 10559ft 152kts
19-Sep-17 09:49 34.243290 -117.398206 307 10580ft 155kts
19-Sep-17 09:50 34.266343 -117.432465 307 10587ft 160kts
19-Sep-17 09:51 34.294754 -117.473998 308 10615ft 161kts
19-Sep-17 09:52 34.323649 -117.515452 308 10645ft 162kts
19-Sep-17 09:53 34.353763 -117.557786 309 10462ft 170kts
19-Sep-17 09:54 34.384481 -117.599950 310 10565ft 159kts
19-Sep-17 09:55 34.413459 -117.638990 306 10630ft 157kts
19-Sep-17 09:56 34.431751 -117.681794 283 10664ft 155kts
19-Sep-17 09:57 34.439322 -117.734274 279 10532ft 162kts
19-Sep-17 09:58 34.447534 -117.788555 279 10370ft 165kts
19-Sep-17 09:59 34.450538 -117.842007 243 10355ft 161kts
19-Sep-17 10:00 34.409493 -117.864345 200 10412ft 168kts
19-Sep-17 10:01 34.364069 -117.876966 197 10475ft 168kts
19-Sep-17 10:02 34.318236 -117.887232 195 10529ft 169kts
19-Sep-17 10:03 34.273196 -117.896129 203 10535ft 169kts
19-Sep-17 10:04 34.230766 -117.928017 221 9446ft 188kts
19-Sep-17 10:05 34.190258 -117.967505 223 8419ft 192kts
19-Sep-17 10:06 34.152723 -118.011114 226 7113ft 193kts
19-Sep-17 10:07 34.121585 -118.060289 259 5764ft 188kts
19-Sep-17 10:08 34.130515 -118.114855 277 5371ft 115kts
19-Sep-17 10:09 34.132145 -118.153300 274 5217ft 137kts
19-Sep-17 10:10 34.135206 -118.199298 275 5093ft 142kts
19-Sep-17 10:11 34.139648 -118.247431 278 4734ft 158kts
19-Sep-17 10:12 34.145287 -118.292508 280 4311ft 170kts
19-Sep-17 10:13 34.154242 -118.344354 283 3889ft 172kts
19-Sep-17 10:14 34.175440 -118.395115 301 3256ft 180kts
19-Sep-17 10:15 34.198929 -118.437931 302 2531ft 123kts
19-Sep-17 10:16 34.220924 -118.457822 337 2168ft 94kts
19-Sep-17 10:17 34.237124 -118.480150 274 1520ft 86kts
19-Sep-17 10:18 34.221881 -118.491668 174 1028ft 74kts
19-Sep-17 10:19 34.210054 -118.490004 349 810ft 0kts
19-Sep-17 10:20 34.210065 -118.491499 215 810ft 8kts
19-Sep-17 10:21 34.207569 -118.491346 209 810ft 10kts

Navigation Log

Ident Type
1. KPSP Airport
2. KVNY Airport